sensor_id;sensor_type;location;lat;lon;timestamp;P1;durP1;ratioP1;P2;durP2;ratioP2
59306;SDS011;47983;53.016;-2.260;2023-07-29T00:00:11;4.53;;;1.20;;
59306;SDS011;47983;53.016;-2.260;2023-07-29T00:02:40;4.78;;;1.15;;
59306;SDS011;47983;53.016;-2.260;2023-07-29T00:05:09;3.47;;;1.25;;
59306;SDS011;47983;53.016;-2.260;2023-07-29T00:07:36;2.92;;;1.20;;
59306;SDS011;47983;53.016;-2.260;2023-07-29T00:10:05;2.65;;;1.00;;
59306;SDS011;47983;53.016;-2.260;2023-07-29T00:12:33;2.40;;;1.02;;
59306;SDS011;47983;53.016;-2.260;2023-07-29T00:15:01;2.70;;;1.00;;
59306;SDS011;47983;53.016;-2.260;2023-07-29T00:17:28;2.65;;;1.30;;
59306;SDS011;47983;53.016;-2.260;2023-07-29T00:19:56;1.45;;;1.30;;
59306;SDS011;47983;53.016;-2.260;2023-07-29T00:22:24;4.38;;;1.05;;
59306;SDS011;47983;53.016;-2.260;2023-07-29T00:24:52;7.63;;;1.60;;
59306;SDS011;47983;53.016;-2.260;2023-07-29T00:27:24;3.33;;;1.38;;
59306;SDS011;47983;53.016;-2.260;2023-07-29T00:29:54;4.80;;;1.33;;
59306;SDS011;47983;53.016;-2.260;2023-07-29T00:32:22;4.25;;;1.42;;
59306;SDS011;47983;53.016;-2.260;2023-07-29T00:34:50;2.30;;;0.93;;
59306;SDS011;47983;53.016;-2.260;2023-07-29T00:37:17;6.40;;;1.50;;
59306;SDS011;47983;53.016;-2.260;2023-07-29T00:39:45;1.60;;;0.98;;
59306;SDS011;47983;53.016;-2.260;2023-07-29T00:42:13;2.90;;;1.00;;
59306;SDS011;47983;53.016;-2.260;2023-07-29T00:44:41;2.85;;;1.20;;
59306;SDS011;47983;53.016;-2.260;2023-07-29T00:47:09;2.92;;;1.20;;
59306;SDS011;47983;53.016;-2.260;2023-07-29T00:49:39;3.25;;;1.10;;
59306;SDS011;47983;53.016;-2.260;2023-07-29T00:52:07;5.53;;;1.38;;
59306;SDS011;47983;53.016;-2.260;2023-07-29T00:54:35;5.25;;;1.15;;
59306;SDS011;47983;53.016;-2.260;2023-07-29T00:57:03;2.05;;;1.30;;
59306;SDS011;47983;53.016;-2.260;2023-07-29T00:59:31;3.63;;;1.25;;
59306;SDS011;47983;53.016;-2.260;2023-07-29T01:01:59;1.92;;;0.80;;
59306;SDS011;47983;53.016;-2.260;2023-07-29T01:04:27;3.90;;;1.25;;
59306;SDS011;47983;53.016;-2.260;2023-07-29T01:12:17;4.97;;;1.30;;
59306;SDS011;47983;53.016;-2.260;2023-07-29T01:15:23;2.22;;;1.10;;
59306;SDS011;47983;53.016;-2.260;2023-07-29T01:17:56;5.03;;;1.15;;
59306;SDS011;47983;53.016;-2.260;2023-07-29T01:20:31;6.18;;;1.42;;
59306;SDS011;47983;53.016;-2.260;2023-07-29T01:23:01;2.00;;;1.10;;
59306;SDS011;47983;53.016;-2.260;2023-07-29T01:25:28;2.15;;;1.00;;
59306;SDS011;47983;53.016;-2.260;2023-07-29T01:27:56;1.90;;;1.13;;
59306;SDS011;47983;53.016;-2.260;2023-07-29T01:30:26;2.22;;;1.92;;
59306;SDS011;47983;53.016;-2.260;2023-07-29T01:33:02;6.05;;;1.30;;
59306;SDS011;47983;53.016;-2.260;2023-07-29T01:35:47;3.42;;;1.00;;
59306;SDS011;47983;53.016;-2.260;2023-07-29T01:38:18;2.10;;;0.88;;
59306;SDS011;47983;53.016;-2.260;2023-07-29T01:40:51;3.67;;;1.10;;
59306;SDS011;47983;53.016;-2.260;2023-07-29T01:43:19;2.75;;;1.15;;
59306;SDS011;47983;53.016;-2.260;2023-07-29T01:45:52;4.72;;;1.30;;
59306;SDS011;47983;53.016;-2.260;2023-07-29T01:48:21;2.08;;;1.35;;
59306;SDS011;47983;53.016;-2.260;2023-07-29T01:50:50;3.17;;;1.30;;
59306;SDS011;47983;53.016;-2.260;2023-07-29T01:53:18;3.00;;;1.05;;
59306;SDS011;47983;53.016;-2.260;2023-07-29T01:55:45;3.53;;;1.40;;
59306;SDS011;47983;53.016;-2.260;2023-07-29T01:58:14;4.80;;;0.90;;
59306;SDS011;47983;53.016;-2.260;2023-07-29T02:00:46;4.30;;;1.25;;
59306;SDS011;47983;53.016;-2.260;2023-07-29T02:03:13;8.93;;;1.42;;
59306;SDS011;47983;53.016;-2.260;2023-07-29T02:05:41;1.45;;;0.90;;
59306;SDS011;47983;53.016;-2.260;2023-07-29T02:08:11;6.63;;;1.23;;
59306;SDS011;47983;53.016;-2.260;2023-07-29T02:10:38;6.50;;;1.35;;
59306;SDS011;47983;53.016;-2.260;2023-07-29T02:13:06;3.90;;;1.08;;
59306;SDS011;47983;53.016;-2.260;2023-07-29T02:15:34;3.22;;;1.05;;
59306;SDS011;47983;53.016;-2.260;2023-07-29T02:18:02;4.53;;;1.23;;
59306;SDS011;47983;53.016;-2.260;2023-07-29T02:20:30;6.88;;;1.30;;
59306;SDS011;47983;53.016;-2.260;2023-07-29T02:22:58;5.20;;;1.20;;
59306;SDS011;47983;53.016;-2.260;2023-07-29T02:25:26;3.67;;;1.23;;
59306;SDS011;47983;53.016;-2.260;2023-07-29T02:27:53;3.65;;;1.15;;
59306;SDS011;47983;53.016;-2.260;2023-07-29T02:30:21;5.93;;;1.20;;
59306;SDS011;47983;53.016;-2.260;2023-07-29T02:32:49;2.67;;;0.93;;
59306;SDS011;47983;53.016;-2.260;2023-07-29T02:35:17;3.65;;;1.00;;
59306;SDS011;47983;53.016;-2.260;2023-07-29T02:37:45;2.78;;;1.10;;
59306;SDS011;47983;53.016;-2.260;2023-07-29T02:40:13;3.55;;;1.33;;
59306;SDS011;47983;53.016;-2.260;2023-07-29T02:42:41;4.65;;;1.15;;
59306;SDS011;47983;53.016;-2.260;2023-07-29T02:48:18;5.32;;;1.52;;
59306;SDS011;47983;53.016;-2.260;2023-07-29T02:50:47;9.60;;;1.20;;
59306;SDS011;47983;53.016;-2.260;2023-07-29T02:53:14;3.92;;;1.48;;
59306;SDS011;47983;53.016;-2.260;2023-07-29T02:55:42;5.32;;;1.50;;
59306;SDS011;47983;53.016;-2.260;2023-07-29T02:58:09;6.72;;;1.80;;
59306;SDS011;47983;53.016;-2.260;2023-07-29T03:00:37;5.95;;;1.35;;
59306;SDS011;47983;53.016;-2.260;2023-07-29T03:03:08;3.58;;;1.40;;
59306;SDS011;47983;53.016;-2.260;2023-07-29T03:05:36;5.82;;;1.98;;
59306;SDS011;47983;53.016;-2.260;2023-07-29T03:08:05;2.50;;;1.45;;
59306;SDS011;47983;53.016;-2.260;2023-07-29T03:10:34;7.47;;;1.50;;
59306;SDS011;47983;53.016;-2.260;2023-07-29T03:13:03;6.82;;;1.70;;
59306;SDS011;47983;53.016;-2.260;2023-07-29T03:15:31;5.35;;;1.90;;
59306;SDS011;47983;53.016;-2.260;2023-07-29T03:20:28;6.28;;;2.10;;
59306;SDS011;47983;53.016;-2.260;2023-07-29T03:22:56;5.70;;;1.67;;
59306;SDS011;47983;53.016;-2.260;2023-07-29T03:25:24;5.70;;;1.60;;
59306;SDS011;47983;53.016;-2.260;2023-07-29T03:27:51;4.45;;;1.77;;
59306;SDS011;47983;53.016;-2.260;2023-07-29T03:30:20;2.83;;;1.42;;
59306;SDS011;47983;53.016;-2.260;2023-07-29T03:32:49;8.00;;;1.83;;
59306;SDS011;47983;53.016;-2.260;2023-07-29T03:35:17;11.38;;;2.10;;
59306;SDS011;47983;53.016;-2.260;2023-07-29T03:37:45;12.07;;;2.03;;
59306;SDS011;47983;53.016;-2.260;2023-07-29T03:40:14;7.95;;;1.83;;
59306;SDS011;47983;53.016;-2.260;2023-07-29T03:42:42;6.15;;;2.00;;
59306;SDS011;47983;53.016;-2.260;2023-07-29T03:45:09;5.18;;;1.92;;
59306;SDS011;47983;53.016;-2.260;2023-07-29T03:47:37;8.30;;;2.17;;
59306;SDS011;47983;53.016;-2.260;2023-07-29T03:50:05;7.85;;;1.75;;
59306;SDS011;47983;53.016;-2.260;2023-07-29T03:52:33;8.00;;;2.00;;
59306;SDS011;47983;53.016;-2.260;2023-07-29T03:55:01;10.10;;;2.58;;
59306;SDS011;47983;53.016;-2.260;2023-07-29T03:57:28;6.00;;;1.90;;
59306;SDS011;47983;53.016;-2.260;2023-07-29T03:59:56;10.75;;;2.75;;
59306;SDS011;47983;53.016;-2.260;2023-07-29T04:02:24;6.03;;;1.80;;
59306;SDS011;47983;53.016;-2.260;2023-07-29T04:04:52;9.93;;;2.22;;
59306;SDS011;47983;53.016;-2.260;2023-07-29T04:07:20;6.50;;;2.40;;
59306;SDS011;47983;53.016;-2.260;2023-07-29T04:09:48;7.72;;;2.08;;
59306;SDS011;47983;53.016;-2.260;2023-07-29T04:12:16;9.13;;;2.30;;
59306;SDS011;47983;53.016;-2.260;2023-07-29T04:14:44;11.73;;;3.15;;
59306;SDS011;47983;53.016;-2.260;2023-07-29T04:17:12;9.32;;;2.45;;
59306;SDS011;47983;53.016;-2.260;2023-07-29T04:19:39;8.15;;;1.85;;
59306;SDS011;47983;53.016;-2.260;2023-07-29T04:22:07;6.03;;;2.30;;
59306;SDS011;47983;53.016;-2.260;2023-07-29T04:24:35;5.72;;;2.50;;
59306;SDS011;47983;53.016;-2.260;2023-07-29T04:27:03;9.23;;;2.55;;
59306;SDS011;47983;53.016;-2.260;2023-07-29T04:29:31;9.77;;;2.30;;
59306;SDS011;47983;53.016;-2.260;2023-07-29T04:31:58;9.07;;;2.30;;
59306;SDS011;47983;53.016;-2.260;2023-07-29T04:34:29;4.85;;;2.10;;
59306;SDS011;47983;53.016;-2.260;2023-07-29T04:36:56;12.18;;;2.80;;
59306;SDS011;47983;53.016;-2.260;2023-07-29T04:39:24;10.25;;;2.50;;
59306;SDS011;47983;53.016;-2.260;2023-07-29T04:41:52;10.65;;;1.95;;
59306;SDS011;47983;53.016;-2.260;2023-07-29T04:44:20;7.60;;;1.98;;
59306;SDS011;47983;53.016;-2.260;2023-07-29T04:46:55;7.65;;;1.95;;
59306;SDS011;47983;53.016;-2.260;2023-07-29T04:49:24;6.80;;;1.80;;
59306;SDS011;47983;53.016;-2.260;2023-07-29T04:51:51;4.05;;;1.85;;
59306;SDS011;47983;53.016;-2.260;2023-07-29T04:54:19;7.63;;;2.22;;
59306;SDS011;47983;53.016;-2.260;2023-07-29T04:56:48;13.63;;;2.20;;
59306;SDS011;47983;53.016;-2.260;2023-07-29T04:59:17;7.70;;;2.00;;
59306;SDS011;47983;53.016;-2.260;2023-07-29T05:01:44;6.38;;;1.85;;
59306;SDS011;47983;53.016;-2.260;2023-07-29T05:04:13;5.53;;;2.03;;
59306;SDS011;47983;53.016;-2.260;2023-07-29T05:06:40;13.32;;;2.30;;
59306;SDS011;47983;53.016;-2.260;2023-07-29T05:09:12;8.88;;;1.77;;
59306;SDS011;47983;53.016;-2.260;2023-07-29T05:11:41;6.32;;;1.65;;
59306;SDS011;47983;53.016;-2.260;2023-07-29T05:14:12;11.27;;;2.05;;
59306;SDS011;47983;53.016;-2.260;2023-07-29T05:16:41;5.32;;;1.90;;
59306;SDS011;47983;53.016;-2.260;2023-07-29T05:19:09;9.20;;;2.13;;
59306;SDS011;47983;53.016;-2.260;2023-07-29T05:21:37;8.02;;;2.25;;
59306;SDS011;47983;53.016;-2.260;2023-07-29T05:24:05;13.77;;;2.33;;
59306;SDS011;47983;53.016;-2.260;2023-07-29T05:26:34;8.07;;;2.20;;
59306;SDS011;47983;53.016;-2.260;2023-07-29T05:29:02;9.20;;;1.77;;
59306;SDS011;47983;53.016;-2.260;2023-07-29T05:31:31;5.40;;;1.75;;
59306;SDS011;47983;53.016;-2.260;2023-07-29T05:33:59;10.45;;;2.25;;
59306;SDS011;47983;53.016;-2.260;2023-07-29T05:36:27;9.00;;;1.98;;
59306;SDS011;47983;53.016;-2.260;2023-07-29T05:38:55;9.65;;;2.17;;
59306;SDS011;47983;53.016;-2.260;2023-07-29T05:41:22;4.03;;;1.52;;
59306;SDS011;47983;53.016;-2.260;2023-07-29T05:43:50;6.60;;;1.50;;
59306;SDS011;47983;53.016;-2.260;2023-07-29T05:46:18;4.38;;;1.90;;
59306;SDS011;47983;53.016;-2.260;2023-07-29T05:48:46;7.15;;;2.10;;
59306;SDS011;47983;53.016;-2.260;2023-07-29T05:51:14;11.10;;;2.67;;
59306;SDS011;47983;53.016;-2.260;2023-07-29T05:53:41;9.55;;;2.35;;
59306;SDS011;47983;53.016;-2.260;2023-07-29T05:56:09;4.95;;;2.17;;
59306;SDS011;47983;53.016;-2.260;2023-07-29T05:58:37;6.53;;;2.05;;
59306;SDS011;47983;53.016;-2.260;2023-07-29T06:01:06;15.47;;;2.43;;
59306;SDS011;47983;53.016;-2.260;2023-07-29T06:03:34;7.50;;;2.10;;
59306;SDS011;47983;53.016;-2.260;2023-07-29T06:06:02;11.93;;;2.50;;
59306;SDS011;47983;53.016;-2.260;2023-07-29T06:08:30;8.88;;;2.55;;
59306;SDS011;47983;53.016;-2.260;2023-07-29T06:11:01;4.80;;;1.80;;
59306;SDS011;47983;53.016;-2.260;2023-07-29T06:13:29;7.20;;;1.98;;
59306;SDS011;47983;53.016;-2.260;2023-07-29T06:15:57;5.65;;;1.83;;
59306;SDS011;47983;53.016;-2.260;2023-07-29T06:18:25;9.07;;;2.05;;
59306;SDS011;47983;53.016;-2.260;2023-07-29T06:20:54;7.45;;;2.30;;
59306;SDS011;47983;53.016;-2.260;2023-07-29T06:23:22;8.05;;;2.55;;
59306;SDS011;47983;53.016;-2.260;2023-07-29T06:25:50;10.50;;;2.03;;
59306;SDS011;47983;53.016;-2.260;2023-07-29T06:28:18;15.07;;;2.78;;
59306;SDS011;47983;53.016;-2.260;2023-07-29T06:30:46;11.02;;;2.40;;
59306;SDS011;47983;53.016;-2.260;2023-07-29T06:33:14;4.97;;;2.28;;
59306;SDS011;47983;53.016;-2.260;2023-07-29T06:35:41;5.70;;;1.90;;
59306;SDS011;47983;53.016;-2.260;2023-07-29T06:38:09;7.82;;;2.70;;
59306;SDS011;47983;53.016;-2.260;2023-07-29T06:40:37;5.95;;;1.67;;
59306;SDS011;47983;53.016;-2.260;2023-07-29T06:43:05;5.07;;;2.30;;
59306;SDS011;47983;53.016;-2.260;2023-07-29T06:45:33;6.25;;;1.88;;
59306;SDS011;47983;53.016;-2.260;2023-07-29T06:48:00;6.75;;;1.98;;
59306;SDS011;47983;53.016;-2.260;2023-07-29T06:50:28;8.38;;;2.10;;
59306;SDS011;47983;53.016;-2.260;2023-07-29T06:52:56;9.27;;;1.85;;
59306;SDS011;47983;53.016;-2.260;2023-07-29T06:55:24;11.55;;;1.98;;
59306;SDS011;47983;53.016;-2.260;2023-07-29T06:57:52;9.77;;;1.83;;
59306;SDS011;47983;53.016;-2.260;2023-07-29T07:00:20;10.30;;;2.17;;
59306;SDS011;47983;53.016;-2.260;2023-07-29T07:02:48;14.93;;;2.88;;
59306;SDS011;47983;53.016;-2.260;2023-07-29T07:05:16;7.57;;;2.17;;
59306;SDS011;47983;53.016;-2.260;2023-07-29T07:07:44;3.65;;;1.73;;
59306;SDS011;47983;53.016;-2.260;2023-07-29T07:10:14;6.75;;;2.03;;
59306;SDS011;47983;53.016;-2.260;2023-07-29T07:12:42;10.40;;;2.05;;
59306;SDS011;47983;53.016;-2.260;2023-07-29T07:15:10;6.15;;;1.90;;
59306;SDS011;47983;53.016;-2.260;2023-07-29T07:17:38;9.63;;;1.70;;
59306;SDS011;47983;53.016;-2.260;2023-07-29T07:20:06;10.07;;;2.22;;
59306;SDS011;47983;53.016;-2.260;2023-07-29T07:22:34;11.00;;;2.85;;
59306;SDS011;47983;53.016;-2.260;2023-07-29T07:25:02;9.07;;;1.40;;
59306;SDS011;47983;53.016;-2.260;2023-07-29T07:27:33;5.40;;;1.30;;
59306;SDS011;47983;53.016;-2.260;2023-07-29T07:30:00;6.80;;;1.48;;
59306;SDS011;47983;53.016;-2.260;2023-07-29T07:32:28;7.25;;;1.55;;
59306;SDS011;47983;53.016;-2.260;2023-07-29T07:34:56;6.63;;;1.45;;
59306;SDS011;47983;53.016;-2.260;2023-07-29T07:37:24;6.55;;;1.45;;
59306;SDS011;47983;53.016;-2.260;2023-07-29T07:39:51;6.90;;;1.90;;
59306;SDS011;47983;53.016;-2.260;2023-07-29T07:42:20;4.97;;;1.88;;
59306;SDS011;47983;53.016;-2.260;2023-07-29T07:44:48;6.40;;;1.35;;
59306;SDS011;47983;53.016;-2.260;2023-07-29T07:47:15;8.57;;;1.75;;
59306;SDS011;47983;53.016;-2.260;2023-07-29T07:49:43;4.70;;;1.60;;
59306;SDS011;47983;53.016;-2.260;2023-07-29T07:52:11;8.98;;;1.88;;
59306;SDS011;47983;53.016;-2.260;2023-07-29T07:54:38;8.13;;;1.83;;
59306;SDS011;47983;53.016;-2.260;2023-07-29T07:57:06;5.88;;;1.70;;
59306;SDS011;47983;53.016;-2.260;2023-07-29T07:59:34;6.85;;;1.35;;
59306;SDS011;47983;53.016;-2.260;2023-07-29T08:02:02;5.80;;;1.77;;
59306;SDS011;47983;53.016;-2.260;2023-07-29T08:04:30;7.53;;;1.63;;
59306;SDS011;47983;53.016;-2.260;2023-07-29T08:06:58;6.97;;;1.70;;
59306;SDS011;47983;53.016;-2.260;2023-07-29T08:09:26;6.03;;;1.80;;
59306;SDS011;47983;53.016;-2.260;2023-07-29T08:11:54;4.25;;;1.55;;
59306;SDS011;47983;53.016;-2.260;2023-07-29T08:14:23;6.10;;;1.65;;
59306;SDS011;47983;53.016;-2.260;2023-07-29T08:16:50;5.68;;;1.63;;
59306;SDS011;47983;53.016;-2.260;2023-07-29T08:19:18;6.55;;;1.50;;
59306;SDS011;47983;53.016;-2.260;2023-07-29T08:21:48;7.43;;;1.75;;
59306;SDS011;47983;53.016;-2.260;2023-07-29T08:24:16;12.93;;;1.65;;
59306;SDS011;47983;53.016;-2.260;2023-07-29T08:26:44;6.78;;;1.65;;
59306;SDS011;47983;53.016;-2.260;2023-07-29T08:29:12;8.68;;;1.88;;
59306;SDS011;47983;53.016;-2.260;2023-07-29T08:31:40;8.75;;;1.60;;
59306;SDS011;47983;53.016;-2.260;2023-07-29T08:34:08;8.00;;;1.50;;
59306;SDS011;47983;53.016;-2.260;2023-07-29T08:36:37;5.25;;;1.40;;
59306;SDS011;47983;53.016;-2.260;2023-07-29T08:39:05;6.53;;;1.55;;
59306;SDS011;47983;53.016;-2.260;2023-07-29T08:41:54;12.63;;;2.45;;
59306;SDS011;47983;53.016;-2.260;2023-07-29T08:44:42;9.68;;;2.58;;
59306;SDS011;47983;53.016;-2.260;2023-07-29T08:47:12;5.47;;;1.85;;
59306;SDS011;47983;53.016;-2.260;2023-07-29T08:49:44;6.63;;;2.00;;
59306;SDS011;47983;53.016;-2.260;2023-07-29T08:52:13;7.25;;;2.08;;
59306;SDS011;47983;53.016;-2.260;2023-07-29T08:54:42;11.20;;;1.98;;
59306;SDS011;47983;53.016;-2.260;2023-07-29T08:57:10;11.80;;;2.45;;
59306;SDS011;47983;53.016;-2.260;2023-07-29T08:59:37;5.72;;;1.63;;
59306;SDS011;47983;53.016;-2.260;2023-07-29T09:02:06;6.57;;;1.40;;
59306;SDS011;47983;53.016;-2.260;2023-07-29T09:04:35;4.93;;;0.77;;
59306;SDS011;47983;53.016;-2.260;2023-07-29T09:07:03;5.22;;;1.17;;
59306;SDS011;47983;53.016;-2.260;2023-07-29T09:09:33;5.97;;;1.00;;
59306;SDS011;47983;53.016;-2.260;2023-07-29T09:12:01;7.50;;;1.33;;
59306;SDS011;47983;53.016;-2.260;2023-07-29T09:14:30;4.97;;;1.55;;
59306;SDS011;47983;53.016;-2.260;2023-07-29T09:16:58;3.97;;;1.50;;
59306;SDS011;47983;53.016;-2.260;2023-07-29T09:19:27;4.60;;;1.15;;
59306;SDS011;47983;53.016;-2.260;2023-07-29T09:21:55;7.03;;;1.80;;
59306;SDS011;47983;53.016;-2.260;2023-07-29T09:24:24;10.63;;;1.60;;
59306;SDS011;47983;53.016;-2.260;2023-07-29T09:26:52;10.05;;;2.00;;
59306;SDS011;47983;53.016;-2.260;2023-07-29T09:29:21;2.83;;;0.90;;
59306;SDS011;47983;53.016;-2.260;2023-07-29T09:31:51;10.45;;;1.67;;
59306;SDS011;47983;53.016;-2.260;2023-07-29T09:34:19;6.63;;;1.13;;
59306;SDS011;47983;53.016;-2.260;2023-07-29T09:36:46;3.85;;;1.35;;
59306;SDS011;47983;53.016;-2.260;2023-07-29T09:39:18;7.30;;;1.35;;
59306;SDS011;47983;53.016;-2.260;2023-07-29T09:41:50;7.28;;;1.27;;
59306;SDS011;47983;53.016;-2.260;2023-07-29T09:44:18;4.50;;;1.08;;
59306;SDS011;47983;53.016;-2.260;2023-07-29T09:46:49;7.18;;;0.90;;
59306;SDS011;47983;53.016;-2.260;2023-07-29T09:49:17;7.65;;;0.85;;
59306;SDS011;47983;53.016;-2.260;2023-07-29T09:51:45;6.50;;;1.55;;
59306;SDS011;47983;53.016;-2.260;2023-07-29T09:54:13;4.85;;;0.98;;
59306;SDS011;47983;53.016;-2.260;2023-07-29T09:56:42;4.47;;;1.67;;
59306;SDS011;47983;53.016;-2.260;2023-07-29T09:59:11;9.10;;;2.20;;
59306;SDS011;47983;53.016;-2.260;2023-07-29T10:01:40;6.10;;;1.88;;
59306;SDS011;47983;53.016;-2.260;2023-07-29T10:04:08;10.70;;;1.40;;
59306;SDS011;47983;53.016;-2.260;2023-07-29T10:06:40;15.13;;;1.88;;
59306;SDS011;47983;53.016;-2.260;2023-07-29T10:09:11;12.63;;;2.33;;
59306;SDS011;47983;53.016;-2.260;2023-07-29T10:11:40;8.73;;;1.83;;
59306;SDS011;47983;53.016;-2.260;2023-07-29T10:14:08;11.05;;;1.50;;
59306;SDS011;47983;53.016;-2.260;2023-07-29T10:16:36;5.38;;;1.10;;
59306;SDS011;47983;53.016;-2.260;2023-07-29T10:19:06;6.88;;;1.40;;
59306;SDS011;47983;53.016;-2.260;2023-07-29T10:21:36;7.13;;;1.00;;
59306;SDS011;47983;53.016;-2.260;2023-07-29T10:24:08;9.20;;;3.10;;
59306;SDS011;47983;53.016;-2.260;2023-07-29T10:26:41;16.60;;;3.88;;
59306;SDS011;47983;53.016;-2.260;2023-07-29T10:29:13;8.55;;;1.98;;
59306;SDS011;47983;53.016;-2.260;2023-07-29T10:31:44;2.22;;;1.02;;
59306;SDS011;47983;53.016;-2.260;2023-07-29T10:34:13;7.63;;;1.30;;
59306;SDS011;47983;53.016;-2.260;2023-07-29T10:36:42;6.87;;;1.93;;
59306;SDS011;47983;53.016;-2.260;2023-07-29T10:39:10;5.53;;;0.95;;
59306;SDS011;47983;53.016;-2.260;2023-07-29T10:41:54;15.40;;;1.30;;
59306;SDS011;47983;53.016;-2.260;2023-07-29T10:49:44;3.63;;;0.75;;
59306;SDS011;47983;53.016;-2.260;2023-07-29T10:52:13;5.47;;;0.85;;
59306;SDS011;47983;53.016;-2.260;2023-07-29T10:57:15;3.88;;;1.15;;
59306;SDS011;47983;53.016;-2.260;2023-07-29T10:59:58;6.60;;;1.30;;
59306;SDS011;47983;53.016;-2.260;2023-07-29T11:02:30;3.10;;;1.23;;
59306;SDS011;47983;53.016;-2.260;2023-07-29T11:05:05;4.00;;;0.82;;
59306;SDS011;47983;53.016;-2.260;2023-07-29T11:07:53;4.28;;;1.45;;
59306;SDS011;47983;53.016;-2.260;2023-07-29T11:10:21;3.17;;;0.75;;
59306;SDS011;47983;53.016;-2.260;2023-07-29T11:12:50;4.07;;;0.80;;
59306;SDS011;47983;53.016;-2.260;2023-07-29T11:17:49;2.47;;;0.98;;
59306;SDS011;47983;53.016;-2.260;2023-07-29T11:20:20;7.80;;;0.88;;
59306;SDS011;47983;53.016;-2.260;2023-07-29T11:22:49;1.90;;;0.98;;
59306;SDS011;47983;53.016;-2.260;2023-07-29T11:25:18;13.35;;;1.35;;
59306;SDS011;47983;53.016;-2.260;2023-07-29T11:27:46;4.32;;;1.00;;
59306;SDS011;47983;53.016;-2.260;2023-07-29T11:30:15;8.15;;;1.33;;
59306;SDS011;47983;53.016;-2.260;2023-07-29T11:32:44;3.17;;;1.45;;
59306;SDS011;47983;53.016;-2.260;2023-07-29T11:35:14;4.82;;;1.17;;
59306;SDS011;47983;53.016;-2.260;2023-07-29T11:37:47;2.92;;;1.00;;
59306;SDS011;47983;53.016;-2.260;2023-07-29T11:40:17;3.13;;;0.50;;
59306;SDS011;47983;53.016;-2.260;2023-07-29T11:45:14;3.22;;;0.55;;
59306;SDS011;47983;53.016;-2.260;2023-07-29T11:47:44;8.00;;;1.13;;
59306;SDS011;47983;53.016;-2.260;2023-07-29T11:50:13;8.05;;;0.93;;
59306;SDS011;47983;53.016;-2.260;2023-07-29T11:52:43;4.87;;;1.10;;
59306;SDS011;47983;53.016;-2.260;2023-07-29T11:57:42;9.07;;;1.50;;
59306;SDS011;47983;53.016;-2.260;2023-07-29T12:00:11;4.60;;;0.68;;
59306;SDS011;47983;53.016;-2.260;2023-07-29T12:02:42;1.65;;;0.55;;
59306;SDS011;47983;53.016;-2.260;2023-07-29T12:05:13;2.40;;;0.70;;
59306;SDS011;47983;53.016;-2.260;2023-07-29T12:07:42;2.15;;;0.63;;
59306;SDS011;47983;53.016;-2.260;2023-07-29T12:10:11;1.95;;;0.77;;
59306;SDS011;47983;53.016;-2.260;2023-07-29T12:12:46;9.18;;;0.75;;
59306;SDS011;47983;53.016;-2.260;2023-07-29T12:15:25;7.53;;;0.68;;
59306;SDS011;47983;53.016;-2.260;2023-07-29T12:17:55;1.90;;;0.80;;
59306;SDS011;47983;53.016;-2.260;2023-07-29T12:20:24;1.70;;;0.82;;
59306;SDS011;47983;53.016;-2.260;2023-07-29T12:22:56;1.60;;;0.85;;
59306;SDS011;47983;53.016;-2.260;2023-07-29T12:25:26;4.00;;;0.93;;
59306;SDS011;47983;53.016;-2.260;2023-07-29T12:27:55;2.90;;;1.13;;
59306;SDS011;47983;53.016;-2.260;2023-07-29T12:30:23;3.58;;;0.55;;
59306;SDS011;47983;53.016;-2.260;2023-07-29T12:32:52;1.45;;;0.52;;
59306;SDS011;47983;53.016;-2.260;2023-07-29T12:35:20;6.70;;;0.50;;
59306;SDS011;47983;53.016;-2.260;2023-07-29T12:37:59;0.87;;;0.30;;
59306;SDS011;47983;53.016;-2.260;2023-07-29T12:40:27;21.50;;;2.03;;
59306;SDS011;47983;53.016;-2.260;2023-07-29T12:42:55;4.80;;;0.77;;
59306;SDS011;47983;53.016;-2.260;2023-07-29T12:45:23;3.42;;;0.70;;
59306;SDS011;47983;53.016;-2.260;2023-07-29T12:47:55;4.47;;;0.75;;
59306;SDS011;47983;53.016;-2.260;2023-07-29T12:50:23;3.88;;;0.75;;
59306;SDS011;47983;53.016;-2.260;2023-07-29T12:52:51;4.70;;;0.57;;
59306;SDS011;47983;53.016;-2.260;2023-07-29T12:55:18;2.80;;;0.55;;
59306;SDS011;47983;53.016;-2.260;2023-07-29T12:57:49;6.32;;;0.93;;
59306;SDS011;47983;53.016;-2.260;2023-07-29T13:00:18;3.17;;;0.75;;
59306;SDS011;47983;53.016;-2.260;2023-07-29T13:02:46;3.78;;;0.50;;
59306;SDS011;47983;53.016;-2.260;2023-07-29T13:05:14;8.50;;;1.05;;
59306;SDS011;47983;53.016;-2.260;2023-07-29T13:07:42;4.90;;;0.55;;
59306;SDS011;47983;53.016;-2.260;2023-07-29T13:10:10;4.97;;;0.90;;
59306;SDS011;47983;53.016;-2.260;2023-07-29T13:12:38;5.10;;;0.80;;
59306;SDS011;47983;53.016;-2.260;2023-07-29T13:15:06;2.55;;;0.50;;
59306;SDS011;47983;53.016;-2.260;2023-07-29T13:17:35;4.55;;;0.80;;
59306;SDS011;47983;53.016;-2.260;2023-07-29T13:22:33;1.50;;;0.40;;
59306;SDS011;47983;53.016;-2.260;2023-07-29T13:25:00;4.47;;;0.70;;
59306;SDS011;47983;53.016;-2.260;2023-07-29T13:27:28;4.32;;;0.60;;
59306;SDS011;47983;53.016;-2.260;2023-07-29T13:29:57;3.88;;;0.93;;
59306;SDS011;47983;53.016;-2.260;2023-07-29T13:32:25;4.65;;;0.70;;
59306;SDS011;47983;53.016;-2.260;2023-07-29T13:34:53;7.13;;;0.98;;
59306;SDS011;47983;53.016;-2.260;2023-07-29T13:37:21;7.10;;;0.73;;
59306;SDS011;47983;53.016;-2.260;2023-07-29T13:39:49;4.03;;;0.80;;
59306;SDS011;47983;53.016;-2.260;2023-07-29T13:42:16;5.57;;;0.85;;
59306;SDS011;47983;53.016;-2.260;2023-07-29T13:44:44;5.05;;;0.80;;
59306;SDS011;47983;53.016;-2.260;2023-07-29T13:47:12;3.35;;;0.73;;
59306;SDS011;47983;53.016;-2.260;2023-07-29T13:49:42;7.22;;;1.67;;
59306;SDS011;47983;53.016;-2.260;2023-07-29T13:52:10;5.53;;;1.10;;
59306;SDS011;47983;53.016;-2.260;2023-07-29T13:54:38;5.60;;;0.70;;
59306;SDS011;47983;53.016;-2.260;2023-07-29T13:57:06;3.85;;;0.85;;
59306;SDS011;47983;53.016;-2.260;2023-07-29T13:59:34;4.35;;;0.43;;
59306;SDS011;47983;53.016;-2.260;2023-07-29T14:02:02;4.72;;;0.80;;
59306;SDS011;47983;53.016;-2.260;2023-07-29T14:04:30;6.68;;;0.82;;
59306;SDS011;47983;53.016;-2.260;2023-07-29T14:06:59;2.97;;;0.95;;
59306;SDS011;47983;53.016;-2.260;2023-07-29T14:09:27;4.38;;;0.60;;
59306;SDS011;47983;53.016;-2.260;2023-07-29T14:11:55;3.63;;;0.57;;
59306;SDS011;47983;53.016;-2.260;2023-07-29T14:14:25;5.13;;;1.10;;
59306;SDS011;47983;53.016;-2.260;2023-07-29T14:16:53;4.97;;;1.27;;
59306;SDS011;47983;53.016;-2.260;2023-07-29T14:19:21;5.28;;;0.82;;
59306;SDS011;47983;53.016;-2.260;2023-07-29T14:21:50;2.33;;;0.60;;
59306;SDS011;47983;53.016;-2.260;2023-07-29T14:24:17;2.72;;;0.60;;
59306;SDS011;47983;53.016;-2.260;2023-07-29T14:26:45;4.47;;;0.60;;
59306;SDS011;47983;53.016;-2.260;2023-07-29T14:29:13;3.83;;;0.70;;
59306;SDS011;47983;53.016;-2.260;2023-07-29T14:31:41;5.07;;;0.90;;
59306;SDS011;47983;53.016;-2.260;2023-07-29T14:34:09;5.30;;;0.95;;
59306;SDS011;47983;53.016;-2.260;2023-07-29T14:36:37;3.00;;;0.73;;
59306;SDS011;47983;53.016;-2.260;2023-07-29T14:39:05;3.92;;;0.82;;
59306;SDS011;47983;53.016;-2.260;2023-07-29T14:41:33;5.60;;;0.80;;
59306;SDS011;47983;53.016;-2.260;2023-07-29T14:44:01;5.97;;;0.82;;
59306;SDS011;47983;53.016;-2.260;2023-07-29T14:46:29;3.80;;;0.60;;
59306;SDS011;47983;53.016;-2.260;2023-07-29T14:48:56;5.05;;;0.70;;
59306;SDS011;47983;53.016;-2.260;2023-07-29T14:51:25;3.33;;;0.65;;
59306;SDS011;47983;53.016;-2.260;2023-07-29T14:53:52;4.82;;;0.82;;
59306;SDS011;47983;53.016;-2.260;2023-07-29T14:56:20;2.38;;;0.65;;
59306;SDS011;47983;53.016;-2.260;2023-07-29T14:58:50;2.08;;;0.50;;
59306;SDS011;47983;53.016;-2.260;2023-07-29T15:01:20;3.97;;;0.75;;
59306;SDS011;47983;53.016;-2.260;2023-07-29T15:03:51;3.72;;;0.77;;
59306;SDS011;47983;53.016;-2.260;2023-07-29T15:06:19;2.55;;;0.77;;
59306;SDS011;47983;53.016;-2.260;2023-07-29T15:08:46;4.57;;;0.77;;
59306;SDS011;47983;53.016;-2.260;2023-07-29T15:11:15;2.05;;;0.50;;